Time;durP1;ratioP1;P1;durP2;ratioP2;P2;SDS_P1;SDS_P2;PMS_P1;PMS_P2;Temp;Humidity;BMP_temperature;BMP_pressure;BME280_temperature;BME280_humidity;BME280_pressure;Samples;Min_cycle;Max_cycle;Signal;HPM_P1;HPM_P2
2024/02/22 00:00:00;;;;;;;2.28;1.60;;;;;;;6.92;100.00;97323.84;6108097;19;20428;-71
2024/02/22 00:02:00;;;;;;;1.83;1.40;;;;;;;6.94;100.00;97312.47;6107566;19;20087;-71
2024/02/22 00:04:01;;;;;;;2.53;1.60;;;;;;;6.98;100.00;97333.34;6109412;19;20013;-71
2024/02/22 00:06:01;;;;;;;2.42;1.65;;;;;;;7.03;100.00;97323.94;6108974;19;20005;-71
2024/02/22 00:08:01;;;;;;;1.60;1.30;;;;;;;6.99;100.00;97326.66;6107840;19;20066;-72
2024/02/22 00:10:03;;;;;;;4.55;1.65;;;;;;;7.11;100.00;97316.50;6108656;19;20010;-72
2024/02/22 00:12:04;;;;;;;2.95;1.30;;;;;;;7.14;100.00;97304.75;6108823;19;20006;-71
2024/02/22 00:14:04;;;;;;;2.80;1.45;;;;;;;7.15;100.00;97296.13;6106556;19;20017;-71
2024/02/22 00:16:08;;;;;;;1.70;1.20;;;;;;;7.19;100.00;97294.16;6100834;19;20019;-71
2024/02/22 00:18:08;;;;;;;1.65;1.25;;;;;;;7.25;100.00;97287.13;6100015;19;20488;-71
2024/02/22 00:20:09;;;;;;;1.60;1.20;;;;;;;7.29;100.00;97289.94;6099451;19;19999;-71
2024/02/22 00:22:10;;;;;;;1.40;1.20;;;;;;;7.32;100.00;97283.63;6100338;19;20074;-71
2024/02/22 00:24:10;;;;;;;2.67;1.55;;;;;;;7.29;100.00;97276.94;6101196;19;20331;-71
2024/02/22 00:26:12;;;;;;;2.60;1.38;;;;;;;7.30;100.00;97281.28;6100580;19;20051;-71
2024/02/22 00:28:12;;;;;;;2.17;1.50;;;;;;;7.29;100.00;97273.41;6100294;19;20125;-71
2024/02/22 00:30:13;;;;;;;1.77;1.40;;;;;;;7.24;100.00;97266.31;6098479;19;19999;-71
2024/02/22 00:32:14;;;;;;;2.65;1.25;;;;;;;7.25;100.00;97262.38;6099269;19;20526;-71
2024/02/22 00:34:14;;;;;;;3.65;1.50;;;;;;;7.21;100.00;97271.81;6100300;19;19999;-71
2024/02/22 00:36:14;;;;;;;3.17;1.50;;;;;;;7.15;100.00;97257.63;6099116;19;20006;-71
2024/02/22 00:38:15;;;;;;;4.38;1.70;;;;;;;7.10;100.00;97257.19;6100363;19;20462;-71
2024/02/22 00:40:17;;;;;;;2.72;1.50;;;;;;;7.04;100.00;97254.03;6099182;19;20645;-71
2024/02/22 00:42:17;;;;;;;2.00;1.65;;;;;;;7.05;100.00;97252.84;6100915;19;20006;-71
2024/02/22 00:44:18;;;;;;;1.73;1.40;;;;;;;7.06;100.00;97257.19;6099283;19;20502;-71
2024/02/22 00:46:18;;;;;;;2.28;1.35;;;;;;;7.02;100.00;97250.84;6100066;19;20764;-72
2024/02/22 00:48:18;;;;;;;3.05;1.50;;;;;;;6.99;100.00;97240.63;6099784;19;20003;-71
2024/02/22 00:50:19;;;;;;;1.88;1.40;;;;;;;6.99;100.00;97237.88;6097812;19;20011;-71
2024/02/22 00:52:19;;;;;;;1.77;1.50;;;;;;;6.95;100.00;97228.81;6101361;19;20342;-71
2024/02/22 00:54:19;;;;;;;2.75;1.48;;;;;;;6.92;100.00;97229.59;6101127;19;19998;-71
2024/02/22 00:56:20;;;;;;;1.67;1.33;;;;;;;6.87;100.00;97210.69;6099557;19;20017;-71
2024/02/22 00:58:20;;;;;;;2.33;1.50;;;;;;;6.89;100.00;97216.63;6101651;19;20018;-71
2024/02/22 01:00:20;;;;;;;2.88;1.75;;;;;;;6.87;100.00;97216.19;6097984;19;20018;-71
2024/02/22 01:02:21;;;;;;;2.00;1.80;;;;;;;6.87;100.00;97210.69;6101049;19;20479;-71
2024/02/22 01:04:21;;;;;;;1.70;1.40;;;;;;;6.88;100.00;97210.34;6101030;19;20531;-71
2024/02/22 01:06:22;;;;;;;2.33;1.67;;;;;;;6.95;100.00;97182.88;6101431;19;20002;-71
2024/02/22 01:08:22;;;;;;;3.00;1.90;;;;;;;6.98;100.00;97187.59;6100395;19;20007;-71
2024/02/22 01:10:22;;;;;;;4.72;1.83;;;;;;;7.01;100.00;97180.53;6098347;19;20320;-71
2024/02/22 01:12:23;;;;;;;4.70;1.80;;;;;;;6.99;100.00;97169.13;6100451;19;20017;-71
2024/02/22 01:14:23;;;;;;;1.77;1.65;;;;;;;6.99;100.00;97164.41;6100984;19;20021;-71
2024/02/22 01:16:23;;;;;;;2.83;1.60;;;;;;;6.93;100.00;97165.94;6107153;19;20447;-71
2024/02/22 01:18:24;;;;;;;2.65;1.60;;;;;;;6.90;100.00;97158.47;6108286;19;20028;-71
2024/02/22 01:20:25;;;;;;;2.97;1.52;;;;;;;6.91;100.00;97154.56;6105740;19;20015;-71
2024/02/22 01:22:25;;;;;;;2.83;1.50;;;;;;;6.95;100.00;97146.31;6107208;19;20010;-71
2024/02/22 01:24:26;;;;;;;2.60;1.83;;;;;;;6.97;100.00;97157.75;6108246;19;20010;-71
2024/02/22 01:26:26;;;;;;;2.55;1.42;;;;;;;6.93;100.00;97149.44;6108463;19;20914;-71
2024/02/22 01:28:26;;;;;;;2.67;1.35;;;;;;;6.86;100.00;97141.16;6107467;19;20007;-71
2024/02/22 01:30:27;;;;;;;3.22;1.35;;;;;;;6.87;100.00;97125.47;6105386;19;20235;-71
2024/02/22 01:32:28;;;;;;;2.40;1.50;;;;;;;6.86;100.00;97130.16;6105979;19;20029;-71
2024/02/22 01:34:28;;;;;;;2.83;1.25;;;;;;;6.89;100.00;97125.88;6107704;19;20652;-71
2024/02/22 01:36:29;;;;;;;2.38;1.40;;;;;;;6.82;100.00;97118.38;6107487;19;20011;-71
2024/02/22 01:38:29;;;;;;;2.17;1.30;;;;;;;6.87;100.00;97114.47;6107490;19;20010;-71
2024/02/22 01:40:29;;;;;;;2.22;1.55;;;;;;;6.89;100.00;97112.91;6105878;19;20010;-71
2024/02/22 01:42:30;;;;;;;2.15;1.50;;;;;;;6.86;100.00;97101.88;6107477;19;20101;-71
2024/02/22 01:44:30;;;;;;;2.20;1.52;;;;;;;6.83;100.00;97089.72;6112051;19;20010;-71
2024/02/22 01:46:31;;;;;;;1.58;1.20;;;;;;;6.86;100.00;97093.66;6112966;19;20014;-71
2024/02/22 01:48:32;;;;;;;2.33;1.15;;;;;;;6.90;100.00;97077.97;6111941;19;20425;-71
2024/02/22 01:50:32;;;;;;;1.60;1.20;;;;;;;6.85;100.00;97072.84;6110106;19;20010;-71
2024/02/22 01:52:33;;;;;;;2.90;1.25;;;;;;;6.84;100.00;97080.28;6113484;19;20511;-71
2024/02/22 01:54:34;;;;;;;1.10;1.00;;;;;;;6.87;100.00;97084.22;6112981;19;20356;-71
2024/02/22 01:56:34;;;;;;;1.15;1.05;;;;;;;6.85;100.00;97086.56;6113235;19;20012;-71
2024/02/22 01:58:36;;;;;;;1.70;1.10;;;;;;;6.90;100.00;97083.47;6112588;19;20010;-71
2024/02/22 02:00:37;;;;;;;1.52;1.00;;;;;;;6.89;100.00;97068.16;6112251;19;20006;-71
2024/02/22 02:02:38;;;;;;;1.10;0.90;;;;;;;6.90;100.00;97081.50;6113795;19;20089;-71
2024/02/22 02:04:39;;;;;;;1.30;1.20;;;;;;;6.90;100.00;97075.22;6113533;19;20389;-71
2024/02/22 02:06:40;;;;;;;1.15;1.02;;;;;;;6.90;100.00;97065.00;6114005;19;20021;-71
2024/02/22 02:08:40;;;;;;;1.65;1.30;;;;;;;6.91;100.00;97060.28;6112373;19;20010;-71
2024/02/22 02:10:41;;;;;;;1.75;1.10;;;;;;;6.88;100.00;97069.31;6112909;19;20351;-71
2024/02/22 02:12:41;;;;;;;1.55;1.00;;;;;;;6.91;100.00;97061.06;6113233;19;20086;-71
2024/02/22 02:14:41;;;;;;;1.10;1.05;;;;;;;6.94;100.00;97063.03;6112359;19;20312;-71
2024/02/22 02:16:42;;;;;;;1.38;1.10;;;;;;;6.93;100.00;97052.44;6112859;19;20003;-71
2024/02/22 02:18:42;;;;;;;1.60;1.13;;;;;;;6.97;100.00;97067.00;6109694;19;20431;-71
2024/02/22 02:20:58;;;;;;;1.70;1.40;;;;;;;6.94;100.00;97060.28;6112427;19;20905;-71
2024/02/22 02:23:33;;;;;;;0.95;0.90;;;;;;;6.91;100.00;97036.31;6112164;19;20044;-71
2024/02/22 02:25:33;;;;;;;1.25;1.15;;;;;;;6.93;100.00;97031.22;6111913;19;20031;-71
2024/02/22 02:27:34;;;;;;;1.17;1.08;;;;;;;6.90;100.00;97029.25;6110541;19;20074;-71
2024/02/22 02:29:34;;;;;;;0.82;0.80;;;;;;;6.90;100.00;97023.75;6110947;19;20002;-71
2024/02/22 02:31:35;;;;;;;1.17;1.02;;;;;;;6.90;100.00;97022.97;6111214;19;20022;-71
2024/02/22 02:33:35;;;;;;;1.42;0.98;;;;;;;6.88;100.00;97006.88;6112288;19;20027;-71
2024/02/22 02:35:37;;;;;;;1.98;1.10;;;;;;;6.95;100.00;97015.16;6112125;19;20098;-71
2024/02/22 02:37:38;;;;;;;1.10;0.85;;;;;;;6.88;100.00;97004.13;6112510;19;20462;-71
2024/02/22 02:39:38;;;;;;;1.40;1.00;;;;;;;6.94;100.00;97004.50;6111259;19;20010;-71
2024/02/22 02:41:38;;;;;;;1.13;0.88;;;;;;;6.87;100.00;96999.81;6110880;19;20002;-71
2024/02/22 02:43:39;;;;;;;1.38;1.10;;;;;;;6.89;100.00;96993.91;6112146;19;20020;-71
2024/02/22 02:45:39;;;;;;;1.35;1.10;;;;;;;6.89;100.00;96983.69;6112420;19;20348;-71
2024/02/22 02:47:39;;;;;;;0.90;0.80;;;;;;;6.91;100.00;96983.31;6111373;19;20442;-71
2024/02/22 02:49:40;;;;;;;2.33;1.00;;;;;;;6.94;100.00;96979.75;6111224;19;20102;-71
2024/02/22 02:51:40;;;;;;;0.95;0.90;;;;;;;6.97;100.00;96968.00;6109777;19;20014;-71
2024/02/22 02:53:42;;;;;;;0.70;0.70;;;;;;;7.00;100.00;96961.72;6110911;19;20009;-71
2024/02/22 02:55:42;;;;;;;1.38;1.05;;;;;;;7.02;100.00;96973.88;6112029;19;20475;-71
2024/02/22 02:57:42;;;;;;;3.45;1.00;;;;;;;6.99;100.00;96966.44;6111512;19;19999;-71
2024/02/22 02:59:43;;;;;;;1.50;1.20;;;;;;;6.95;100.00;96960.16;6111017;19;20003;-71
2024/02/22 03:01:47;;;;;;;1.17;1.08;;;;;;;6.98;100.00;96972.31;6111652;19;20459;-71
2024/02/22 03:03:47;;;;;;;1.60;0.80;;;;;;;6.96;100.00;96969.97;6111210;19;20073;-71
2024/02/22 03:05:47;;;;;;;1.45;0.80;;;;;;;6.99;100.00;96965.66;6112153;19;20014;-71
2024/02/22 03:07:50;;;;;;;0.80;0.80;;;;;;;6.99;100.00;96952.69;6110819;19;20002;-71
2024/02/22 03:09:50;;;;;;;0.73;0.70;;;;;;;6.98;100.00;96948.34;6109499;19;20003;-71
2024/02/22 03:11:50;;;;;;;1.02;0.90;;;;;;;6.96;100.00;96944.44;6110806;19;20014;-71
2024/02/22 03:13:51;;;;;;;0.80;0.80;;;;;;;6.97;100.00;96943.25;6111624;19;20340;-71
2024/02/22 03:15:52;;;;;;;0.73;0.73;;;;;;;6.97;100.00;96935.00;6111200;19;20421;-71
2024/02/22 03:17:52;;;;;;;0.98;0.70;;;;;;;6.99;100.00;96932.66;6111042;19;20003;-71
2024/02/22 03:19:53;;;;;;;0.73;0.73;;;;;;;6.96;100.00;96936.97;6110870;19;20004;-71
2024/02/22 03:21:53;;;;;;;0.90;0.75;;;;;;;6.99;100.00;96922.44;6110809;19;20059;-71
2024/02/22 03:23:54;;;;;;;0.70;0.70;;;;;;;6.98;100.00;96928.31;6111309;19;20006;-71
2024/02/22 03:25:56;;;;;;;0.82;0.82;;;;;;;6.98;100.00;96918.13;6110653;19;20138;-71
2024/02/22 03:27:58;;;;;;;1.30;0.77;;;;;;;7.07;100.00;96916.94;6110924;19;20062;-71
2024/02/22 03:29:59;;;;;;;;;;;;;;;7.08;100.00;96910.25;6109763;19;20951;-71
2024/02/22 03:31:59;;;;;;;0.70;0.70;;;;;;;7.12;100.00;96909.09;6109479;19;19974;-71
2024/02/22 03:34:00;;;;;;;0.90;0.70;;;;;;;7.08;100.00;96910.25;6111379;19;20042;-71
2024/02/22 03:36:00;;;;;;;1.00;1.00;;;;;;;7.10;100.00;96905.16;6111205;19;20002;-71
2024/02/22 03:38:00;;;;;;;1.35;0.70;;;;;;;7.10;100.00;96899.63;6110166;19;20006;-71
2024/02/22 03:40:01;;;;;;;0.95;0.82;;;;;;;7.10;100.00;96892.19;6109167;19;20010;-72
2024/02/22 03:42:02;;;;;;;1.02;0.90;;;;;;;7.10;100.00;96892.19;6110042;19;20550;-71
2024/02/22 03:44:03;;;;;;;0.70;0.70;;;;;;;7.11;100.00;96898.47;6110192;19;20323;-72
2024/02/22 03:46:04;;;;;;;0.75;0.70;;;;;;;7.11;100.00;96901.22;6110356;19;20007;-71
2024/02/22 03:48:06;;;;;;;0.70;0.70;;;;;;;7.09;100.00;96901.59;6110490;19;20360;-71
2024/02/22 03:50:06;;;;;;;0.98;0.70;;;;;;;7.15;100.00;96897.28;6108049;19;20039;-71
2024/02/22 03:52:07;;;;;;;1.02;0.80;;;;;;;7.15;100.00;96893.75;6110103;19;20006;-71
2024/02/22 03:54:07;;;;;;;0.50;0.50;;;;;;;7.15;100.00;96886.28;6111270;19;20010;-72
2024/02/22 03:56:07;;;;;;;1.00;0.77;;;;;;;7.13;100.00;96885.91;6110521;19;20461;-72
2024/02/22 03:58:08;;;;;;;0.70;0.70;;;;;;;7.11;100.00;96882.75;6108724;19;20030;-72
2024/02/22 04:00:09;;;;;;;0.70;0.70;;;;;;;7.08;100.00;96886.28;6107683;19;19998;-72
2024/02/22 04:02:10;;;;;;;0.90;0.73;;;;;;;7.11;100.00;96879.22;6110683;19;20002;-71
2024/02/22 04:04:11;;;;;;;0.80;0.70;;;;;;;7.09;100.00;96873.31;6109515;19;19994;-71
2024/02/22 04:06:11;;;;;;;0.75;0.70;;;;;;;7.10;100.00;96875.66;6107913;19;20014;-72
2024/02/22 04:08:12;;;;;;;1.02;0.70;;;;;;;7.06;100.00;96874.91;6109584;19;20719;-72
2024/02/22 04:10:12;;;;;;;0.75;0.63;;;;;;;7.06;100.00;96863.13;6107259;19;20542;-72
2024/02/22 04:12:13;;;;;;;1.00;0.90;;;;;;;7.07;100.00;96868.22;6108888;19;20006;-72
2024/02/22 04:14:13;;;;;;;1.15;0.70;;;;;;;7.04;100.00;96849.78;6099003;19;20332;-72
2024/02/22 04:16:13;;;;;;;0.60;0.60;;;;;;;7.06;100.00;96855.66;6110092;19;19998;-71
2024/02/22 04:18:14;;;;;;;0.65;0.65;;;;;;;7.12;100.00;96842.31;6107056;19;20022;-72
2024/02/22 04:20:14;;;;;;;0.88;0.80;;;;;;;7.15;100.00;96850.53;6108311;19;19994;-71
2024/02/22 04:22:14;;;;;;;0.90;0.80;;;;;;;7.14;100.00;96837.97;6110018;19;19995;-72
2024/02/22 04:24:15;;;;;;;0.82;0.70;;;;;;;7.19;100.00;96843.03;6108916;19;20102;-72
2024/02/22 04:26:15;;;;;;;0.70;0.70;;;;;;;7.22;100.00;96842.28;6108126;19;20463;-71
2024/02/22 04:28:18;;;;;;;0.60;0.60;;;;;;;7.17;100.00;96833.63;6109296;19;20414;-72
2024/02/22 04:30:18;;;;;;;;;;;;;;;7.18;100.00;96826.94;6108898;19;20062;-72
2024/02/22 04:32:18;;;;;;;0.73;0.73;;;;;;;7.22;100.00;96833.25;6106461;19;20343;-71
2024/02/22 04:34:19;;;;;;;1.17;0.80;;;;;;;7.25;100.00;96833.22;6105393;19;20003;-71
2024/02/22 04:36:20;;;;;;;0.70;0.70;;;;;;;7.29;100.00;96819.47;6109768;19;20421;-71
2024/02/22 04:38:22;;;;;;;0.95;0.80;;;;;;;7.24;100.00;96817.91;6106974;19;20011;-71
2024/02/22 04:40:22;;;;;;;0.70;0.70;;;;;;;7.33;100.00;96821.03;6107367;19;20337;-72
2024/02/22 04:42:22;;;;;;;0.90;0.80;;;;;;;7.32;100.00;96819.47;6109713;19;20022;-72
2024/02/22 04:44:23;;;;;;;0.80;0.80;;;;;;;7.29;100.00;96813.97;6105636;19;19998;-71
2024/02/22 04:46:23;;;;;;;1.02;0.85;;;;;;;7.25;100.00;96810.44;6107023;19;20006;-72
2024/02/22 04:48:23;;;;;;;0.80;0.80;;;;;;;7.29;100.00;96808.47;6108433;19;20035;-72
2024/02/22 04:50:24;;;;;;;1.33;0.82;;;;;;;7.29;100.00;96805.72;6105682;19;20002;-72
2024/02/22 04:52:24;;;;;;;1.17;0.80;;;;;;;7.27;100.00;96806.09;6108969;19;20006;-72
2024/02/22 04:54:26;;;;;;;0.70;0.70;;;;;;;7.27;100.00;96805.31;6107903;19;20010;-72
2024/02/22 04:56:28;;;;;;;0.82;0.70;;;;;;;7.26;100.00;96796.28;6109334;19;20011;-72
2024/02/22 04:58:28;;;;;;;0.75;0.73;;;;;;;7.38;100.00;96797.84;6108631;19;20066;-72
2024/02/22 05:00:30;;;;;;;1.20;1.00;;;;;;;7.41;100.00;96797.03;6107334;19;20011;-72
2024/02/22 05:02:31;;;;;;;0.80;0.80;;;;;;;7.43;100.00;96796.63;6107519;19;20412;-72
2024/02/22 05:04:32;;;;;;;2.05;0.90;;;;;;;7.38;100.00;96800.59;6109115;19;20066;-71
2024/02/22 05:06:32;;;;;;;0.70;0.70;;;;;;;7.37;100.00;96792.75;6109224;19;20031;-72
2024/02/22 05:08:32;;;;;;;1.08;0.90;;;;;;;7.40;100.00;96787.22;6107458;19;20009;-71
2024/02/22 05:10:34;;;;;;;0.80;0.80;;;;;;;7.37;100.00;96784.47;6106811;19;20342;-72
2024/02/22 05:12:34;;;;;;;1.60;0.60;;;;;;;7.41;100.00;96782.50;6107964;19;20478;-71
2024/02/22 05:14:34;;;;;;;0.90;0.77;;;;;;;7.41;100.00;96776.97;6104939;19;20023;-72
2024/02/22 05:16:35;;;;;;;1.95;0.77;;;;;;;7.43;100.00;96761.63;6098067;19;20006;-72
2024/02/22 05:18:37;;;;;;;0.65;0.65;;;;;;;7.48;100.00;96771.47;6101018;19;20290;-72
2024/02/22 05:20:38;;;;;;;0.93;0.90;;;;;;;7.49;100.00;96768.31;6098286;19;20509;-72
2024/02/22 05:22:38;;;;;;;0.70;0.70;;;;;;;7.48;100.00;96765.97;6100350;19;20003;-71
2024/02/22 05:24:40;;;;;;;0.70;0.70;;;;;;;7.45;100.00;96766.78;6100268;19;20026;-72
2024/02/22 05:26:40;;;;;;;0.82;0.73;;;;;;;7.43;100.00;96758.88;6100095;19;20585;-72
2024/02/22 05:28:41;;;;;;;1.25;0.65;;;;;;;7.45;100.00;96764.00;6098524;19;20007;-72
2024/02/22 05:30:42;;;;;;;0.80;0.80;;;;;;;7.46;100.00;96769.13;6096180;19;20010;-72
2024/02/22 05:32:42;;;;;;;0.70;0.70;;;;;;;7.41;100.00;96765.97;6098973;19;20003;-72
2024/02/22 05:34:43;;;;;;;0.90;0.70;;;;;;;7.38;100.00;96755.78;6096806;19;20007;-72
2024/02/22 05:36:44;;;;;;;0.77;0.60;;;;;;;7.39;100.00;96758.13;6099702;19;20458;-72
2024/02/22 05:38:45;;;;;;;0.88;0.80;;;;;;;7.37;100.00;96748.72;6098486;19;20015;-72
2024/02/22 05:40:45;;;;;;;0.60;0.60;;;;;;;7.37;100.00;96754.22;6099112;19;20459;-72
2024/02/22 05:42:46;;;;;;;0.70;0.70;;;;;;;7.36;100.00;96727.88;6099978;19;20027;-72
2024/02/22 05:44:47;;;;;;;0.70;0.70;;;;;;;7.41;100.00;96725.50;6098563;19;20102;-72
2024/02/22 05:46:47;;;;;;;1.23;0.93;;;;;;;7.43;100.00;96719.59;6100594;19;20015;-72
2024/02/22 05:48:48;;;;;;;0.73;0.73;;;;;;;7.40;100.00;96715.66;6098391;19;20007;-72
2024/02/22 05:50:48;;;;;;;0.60;0.60;;;;;;;7.41;100.00;96721.97;6097456;19;20012;-72
2024/02/22 05:52:48;;;;;;;0.68;0.65;;;;;;;7.47;100.00;96710.13;6099943;19;20363;-72
2024/02/22 05:54:49;;;;;;;1.20;0.60;;;;;;;7.47;100.00;96714.88;6098987;19;20542;-72
2024/02/22 05:56:50;;;;;;;0.57;0.57;;;;;;;7.43;100.00;96694.81;6099002;19;20010;-72
2024/02/22 05:58:50;;;;;;;1.88;1.30;;;;;;;7.43;100.00;96700.31;6098127;19;20011;-72
2024/02/22 06:00:50;;;;;;;0.77;0.77;;;;;;;7.49;100.00;96705.00;6099029;19;20007;-72
2024/02/22 06:02:51;;;;;;;0.73;0.60;;;;;;;7.52;100.00;96711.69;6099555;19;20003;-71
2024/02/22 06:04:51;;;;;;;2.85;0.88;;;;;;;7.52;100.00;96714.44;6099231;19;20010;-72
2024/02/22 06:06:51;;;;;;;0.68;0.68;;;;;;;7.51;100.00;96694.38;6099194;19;20107;-72
2024/02/22 06:08:52;;;;;;;0.60;0.60;;;;;;;7.59;100.00;96700.63;6096558;19;20006;-72
2024/02/22 06:10:52;;;;;;;0.55;0.55;;;;;;;7.54;100.00;96707.34;6098562;19;20047;-72
2024/02/22 06:12:52;;;;;;;0.60;0.60;;;;;;;7.55;100.00;96691.63;6099389;19;20021;-72
2024/02/22 06:14:53;;;;;;;0.98;0.80;;;;;;;7.54;100.00;96687.31;6100757;19;20017;-72
2024/02/22 06:16:53;;;;;;;0.57;0.57;;;;;;;7.52;100.00;96687.69;6107813;19;20058;-72
2024/02/22 06:18:54;;;;;;;0.60;0.60;;;;;;;7.51;100.00;96691.63;6105827;19;20022;-72
2024/02/22 06:20:54;;;;;;;0.80;0.70;;;;;;;7.52;100.00;96698.69;6105257;19;20028;-72
2024/02/22 06:22:54;;;;;;;2.05;0.82;;;;;;;7.49;100.00;96693.22;6106507;19;20003;-72
2024/02/22 06:24:55;;;;;;;0.57;0.57;;;;;;;7.52;100.00;96701.44;6106425;19;20011;-72
2024/02/22 06:26:56;;;;;;;0.95;0.70;;;;;;;7.48;100.00;96699.91;6105405;19;20356;-72
2024/02/22 06:28:56;;;;;;;0.60;0.60;;;;;;;7.50;100.00;96692.03;6105443;19;20027;-72
2024/02/22 06:30:56;;;;;;;0.85;0.75;;;;;;;7.58;100.00;96707.34;6112180;19;20003;-72
2024/02/22 06:32:57;;;;;;;0.60;0.60;;;;;;;7.60;100.00;96708.50;6112320;19;20032;-72
2024/02/22 06:34:57;;;;;;;0.70;0.70;;;;;;;7.61;100.00;96701.00;6111119;19;20454;-72
2024/02/22 06:36:58;;;;;;;0.60;0.60;;;;;;;7.60;100.00;96702.19;6112087;19;20006;-72
2024/02/22 06:38:58;;;;;;;1.55;0.70;;;;;;;7.62;100.00;96685.31;6111496;19;20367;-72
2024/02/22 06:40:59;;;;;;;0.60;0.60;;;;;;;7.62;100.00;96688.06;6112826;19;20015;-72
2024/02/22 06:42:59;;;;;;;0.70;0.70;;;;;;;7.67;100.00;96674.63;6111865;19;20030;-72
2024/02/22 06:44:59;;;;;;;0.70;0.70;;;;;;;7.68;100.00;96665.19;6111878;19;20482;-72
2024/02/22 06:47:00;;;;;;;0.70;0.70;;;;;;;7.66;100.00;96645.56;6112340;19;20606;-71
2024/02/22 06:49:00;;;;;;;1.00;0.90;;;;;;;7.76;100.00;96671.44;6108849;19;20015;-72
2024/02/22 06:51:00;;;;;;;0.60;0.60;;;;;;;7.73;100.00;96681.28;6110817;19;20010;-72
2024/02/22 06:53:01;;;;;;;0.60;0.60;;;;;;;7.76;100.00;96674.97;6113849;19;20007;-72
2024/02/22 06:55:02;;;;;;;0.60;0.60;;;;;;;7.78;100.00;96685.59;6112465;19;20002;-72
2024/02/22 06:57:05;;;;;;;0.60;0.60;;;;;;;7.78;100.00;96682.84;6110791;19;20086;-72
2024/02/22 06:59:05;;;;;;;0.75;0.50;;;;;;;7.74;100.00;96674.59;6111736;19;20528;-72
2024/02/22 07:01:06;;;;;;;1.55;0.60;;;;;;;7.75;100.00;96672.63;6109589;19;20003;-72
2024/02/22 07:03:07;;;;;;;1.73;0.60;;;;;;;7.78;100.00;96663.59;6111489;19;20006;-72
2024/02/22 07:05:08;;;;;;;0.55;0.55;;;;;;;7.80;100.00;96664.72;6111395;19;20322;-72
2024/02/22 07:07:08;;;;;;;0.60;0.60;;;;;;;7.78;100.00;96664.38;6111511;19;20015;-72
2024/02/22 07:09:08;;;;;;;0.57;0.57;;;;;;;7.77;100.00;96664.75;6110256;19;20538;-72
2024/02/22 07:11:11;;;;;;;0.50;0.50;;;;;;;7.77;100.00;96659.25;6111595;19;20026;-71
2024/02/22 07:13:12;;;;;;;0.55;0.55;;;;;;;7.85;100.00;96656.03;6110860;19;20003;-72
2024/02/22 07:15:12;;;;;;;0.55;0.55;;;;;;;7.84;100.00;96653.69;6112095;19;20031;-72
2024/02/22 07:17:13;;;;;;;0.75;0.60;;;;;;;7.80;100.00;96650.19;6111333;19;20013;-72
2024/02/22 07:19:13;;;;;;;0.93;0.85;;;;;;;7.77;100.00;96653.72;6109331;19;20348;-72
2024/02/22 07:21:17;;;;;;;2.03;0.57;;;;;;;7.74;100.00;96646.28;6111948;19;20006;-72
2024/02/22 07:23:17;;;;;;;0.60;0.60;;;;;;;7.67;100.00;96649.09;6111294;19;20010;-72
2024/02/22 07:25:20;;;;;;;0.60;0.60;;;;;;;7.69;100.00;96641.97;6110446;19;20009;-72
2024/02/22 07:27:21;;;;;;;0.50;0.50;;;;;;;7.69;100.00;96641.97;6111128;19;20022;-72
2024/02/22 07:29:21;;;;;;;0.63;0.60;;;;;;;7.64;100.00;96645.19;6110268;19;20006;-72
2024/02/22 07:31:21;;;;;;;0.52;0.50;;;;;;;7.73;100.00;96648.25;6110877;19;20030;-72
2024/02/22 07:33:22;;;;;;;0.70;0.70;;;;;;;7.77;100.00;96648.22;6110477;19;20362;-72
2024/02/22 07:35:22;;;;;;;0.50;0.50;;;;;;;7.78;100.00;96645.09;6110481;19;20007;-72
2024/02/22 07:37:23;;;;;;;1.10;0.85;;;;;;;7.75;100.00;96645.88;6110712;19;20466;-72
2024/02/22 07:39:23;;;;;;;0.57;0.57;;;;;;;7.80;100.00;96650.19;6109529;19;20003;-72
2024/02/22 07:41:24;;;;;;;1.75;0.60;;;;;;;7.82;100.00;96650.56;6109820;19;20026;-72
2024/02/22 07:43:24;;;;;;;0.50;0.50;;;;;;;7.81;100.00;96646.25;6110958;19;19998;-71
2024/02/22 07:45:28;;;;;;;0.50;0.50;;;;;;;7.85;100.00;96649.75;6110518;19;20455;-72
2024/02/22 07:47:28;;;;;;;0.90;0.60;;;;;;;7.91;100.00;96647.34;6110090;19;20471;-72
2024/02/22 07:49:28;;;;;;;1.08;0.77;;;;;;;7.91;100.00;96652.84;6108833;19;20018;-72
2024/02/22 07:51:29;;;;;;;0.50;0.50;;;;;;;7.91;100.00;96653.63;6110547;19;20002;-72
2024/02/22 07:53:33;;;;;;;0.55;0.55;;;;;;;7.96;100.00;96660.69;6110187;19;20002;-72
2024/02/22 07:55:34;;;;;;;0.60;0.60;;;;;;;7.95;100.00;96662.66;6110578;19;20008;-72
2024/02/22 07:57:35;;;;;;;0.50;0.50;;;;;;;7.97;100.00;96652.03;6110130;19;20017;-72
2024/02/22 07:59:35;;;;;;;0.50;0.50;;;;;;;7.97;100.00;96657.53;6108826;19;19998;-72
2024/02/22 08:01:40;;;;;;;0.60;0.60;;;;;;;7.94;100.00;96644.56;6109483;19;20036;-72
2024/02/22 08:03:44;;;;;;;2.88;1.00;;;;;;;8.01;100.00;96641.75;6109650;19;19999;-72
2024/02/22 08:05:44;;;;;;;2.45;0.55;;;;;;;8.08;100.00;96649.19;6109058;19;19994;-72
2024/02/22 08:07:44;;;;;;;0.60;0.60;;;;;;;8.12;100.00;96642.47;6110210;19;20118;-72
2024/02/22 08:09:45;;;;;;;0.75;0.70;;;;;;;8.13;100.00;96633.00;6108701;19;20010;-72
2024/02/22 08:11:45;;;;;;;1.35;0.70;;;;;;;8.14;100.00;96622.78;6108910;19;20005;-72
2024/02/22 08:13:45;;;;;;;0.60;0.60;;;;;;;8.13;100.00;96613.72;6109890;19;20003;-72
2024/02/22 08:15:46;;;;;;;0.60;0.60;;;;;;;8.15;100.00;96611.34;6109170;19;19998;-72
2024/02/22 08:17:47;;;;;;;0.63;0.63;;;;;;;8.15;100.00;96618.81;6108968;19;20006;-72
2024/02/22 08:19:47;;;;;;;0.90;0.85;;;;;;;8.12;100.00;96633.44;6109152;19;20013;-72
2024/02/22 08:21:48;;;;;;;0.50;0.50;;;;;;;8.14;100.00;96637.34;6110608;19;20007;-72
2024/02/22 08:23:51;;;;;;;1.38;1.02;;;;;;;8.21;100.00;96630.97;6108651;19;20455;-72
2024/02/22 08:25:51;;;;;;;1.30;0.85;;;;;;;8.17;100.00;96627.47;6106567;19;20012;-72
2024/02/22 08:27:54;;;;;;;0.75;0.65;;;;;;;8.21;100.00;96624.69;6109392;19;20015;-72
2024/02/22 08:29:54;;;;;;;0.70;0.70;;;;;;;8.18;100.00;96612.50;6109018;19;20066;-72
2024/02/22 08:31:55;;;;;;;2.33;1.10;;;;;;;8.24;100.00;96615.59;6108260;19;20338;-72
2024/02/22 08:33:55;;;;;;;0.98;0.73;;;;;;;8.26;100.00;96613.22;6108060;19;20535;-72
2024/02/22 08:35:56;;;;;;;0.93;0.60;;;;;;;8.31;100.00;96610.81;6109609;19;20007;-72
2024/02/22 08:37:57;;;;;;;1.05;0.60;;;;;;;8.33;100.00;96607.63;6108643;19;20006;-72
2024/02/22 08:39:57;;;;;;;0.60;0.60;;;;;;;8.36;100.00;96601.38;6107435;19;20003;-72
2024/02/22 08:41:57;;;;;;;0.60;0.50;;;;;;;8.36;100.00;96591.13;6108421;19;20011;-72
2024/02/22 08:43:58;;;;;;;0.60;0.60;;;;;;;8.39;100.00;96598.56;6109236;19;20006;-72
2024/02/22 08:46:01;;;;;;;1.42;1.05;;;;;;;8.43;100.00;96593.78;6106677;19;20026;-72
2024/02/22 08:48:02;;;;;;;0.60;0.60;;;;;;;8.47;100.00;96590.22;6107895;19;20018;-72
2024/02/22 08:50:04;;;;;;;0.60;0.60;;;;;;;8.46;100.00;96581.19;6107563;19;20615;-72
2024/02/22 08:52:06;;;;;;;0.60;0.60;;;;;;;8.46;100.00;96570.16;6106906;19;20006;-72
2024/02/22 08:54:06;;;;;;;0.80;0.60;;;;;;;8.50;100.00;96587.41;6108672;19;20009;-72
2024/02/22 08:56:10;;;;;;;3.20;2.00;;;;;;;8.52;100.00;96585.03;6108020;19;20028;-72
2024/02/22 08:58:10;;;;;;;3.78;1.70;;;;;;;8.56;100.00;96585.00;6107481;19;20003;-72
2024/02/22 09:00:11;;;;;;;1.30;0.80;;;;;;;8.57;100.00;96578.28;6107300;19;19999;-72
2024/02/22 09:02:12;;;;;;;1.25;0.85;;;;;;;8.61;100.00;96577.06;6108832;19;19998;-72
2024/02/22 09:04:12;;;;;;;0.50;0.50;;;;;;;8.60;100.00;96578.25;6108953;19;20106;-72
2024/02/22 09:06:13;;;;;;;1.52;0.90;;;;;;;8.62;100.00;96583.38;6110195;19;20006;-72
2024/02/22 09:08:16;;;;;;;0.82;0.80;;;;;;;8.66;100.00;96579.38;6107332;19;20002;-72
2024/02/22 09:10:16;;;;;;;1.25;0.82;;;;;;;8.70;100.00;96574.59;6107087;19;19998;-72
2024/02/22 09:12:17;;;;;;;1.02;0.60;;;;;;;8.69;100.00;96569.50;6108784;19;20087;-72
2024/02/22 09:14:18;;;;;;;0.95;0.75;;;;;;;8.68;100.00;96568.69;6098663;19;20059;-72
2024/02/22 09:16:19;;;;;;;1.63;0.80;;;;;;;8.70;100.00;96566.34;6108615;19;20026;-72
2024/02/22 09:18:19;;;;;;;2.85;0.90;;;;;;;8.72;100.00;96560.41;6108540;19;20014;-72
2024/02/22 09:20:20;;;;;;;2.63;1.10;;;;;;;8.72;100.00;96558.44;6106720;19;20330;-72
2024/02/22 09:22:20;;;;;;;2.03;0.93;;;;;;;8.75;100.00;96556.81;6109208;19;20491;-72
2024/02/22 09:24:21;;;;;;;3.38;1.00;;;;;;;8.78;100.00;96557.97;6107600;19;20034;-72
2024/02/22 09:26:22;;;;;;;0.60;0.60;;;;;;;8.79;100.00;96548.50;6107715;19;20010;-72
2024/02/22 09:28:22;;;;;;;1.02;0.80;;;;;;;8.82;100.00;96539.41;6109332;19;20021;-72